Martinopole, Brazil
Current Conditions -  °F | °C
As of 9:00 PM on Tuesday 25 Nov 2014 (Local Time) from SBPB Reporting Station
Broken Clouds Broken Clouds  
Wind Chill: 84°   Ceiling: 1700
Heat Index: 92°   Visibility: 6mi
Dew Point: 75°   Wind: 21mph
Humidity: 74%   Direction: 80°E
Pressure: 29.83"   Gusts: NA
Location:  3.23°S, 40.7°W
Report Text: SBPB 260000Z 08018KT 9999 BKN017 29/24 Q1010
Loading
Personal Weather Stations






























Interactive Weather Map New forecast layout! Learn more

10-Day Weather Forecast

Advertisements
Track Severe Weather on mobile